Kent, United Kingdom
Current Conditions -  °F | °C
As of 6:50 AM on Sunday 23 Nov 2014 (Local Time) from EGXE Reporting Station
Light Rain Light Rain  
Wind Chill: 45°   Ceiling: 7000
Heat Index: 45°   Visibility: 6mi
Dew Point: 45°   Wind: 1mph
Humidity: 100%   Direction: 130°SE
Pressure: 29.97"   Gusts: NA
Location:  54.35°N, 2.8°W
Report Text: EGXE 230650Z AUTO 13001KT 9999 -RA FEW042/// BKN070/// 07/07 Q1015
Loading
Personal Weather Stations






























Interactive Weather Map New forecast layout! Learn more

10-Day Weather Forecast

Advertisements
Track Severe Weather on mobile